sensor_id;sensor_type;location;lat;lon;timestamp;P1;durP1;ratioP1;P2;durP2;ratioP2
62994;SDS011;49086;52.300;4.850;2022-07-30T00:00:40;9.43;;;4.10;;
62994;SDS011;49086;52.300;4.850;2022-07-30T00:03:20;11.63;;;4.20;;
62994;SDS011;49086;52.300;4.850;2022-07-30T00:05:51;10.35;;;4.55;;
62994;SDS011;49086;52.300;4.850;2022-07-30T00:08:19;11.77;;;4.53;;
62994;SDS011;49086;52.300;4.850;2022-07-30T00:10:47;8.52;;;4.03;;
62994;SDS011;49086;52.300;4.850;2022-07-30T00:13:16;8.20;;;4.53;;
62994;SDS011;49086;52.300;4.850;2022-07-30T00:15:42;6.38;;;4.05;;
62994;SDS011;49086;52.300;4.850;2022-07-30T00:18:09;8.57;;;4.10;;
62994;SDS011;49086;52.300;4.850;2022-07-30T00:20:35;9.48;;;4.40;;
62994;SDS011;49086;52.300;4.850;2022-07-30T00:23:03;8.90;;;4.30;;
62994;SDS011;49086;52.300;4.850;2022-07-30T00:25:32;9.10;;;4.13;;
62994;SDS011;49086;52.300;4.850;2022-07-30T00:27:57;7.30;;;4.03;;
62994;SDS011;49086;52.300;4.850;2022-07-30T00:30:23;11.27;;;4.25;;
62994;SDS011;49086;52.300;4.850;2022-07-30T00:32:49;7.53;;;4.20;;
62994;SDS011;49086;52.300;4.850;2022-07-30T00:35:15;6.68;;;3.67;;
62994;SDS011;49086;52.300;4.850;2022-07-30T00:37:41;7.00;;;3.80;;
62994;SDS011;49086;52.300;4.850;2022-07-30T00:40:09;8.45;;;3.97;;
62994;SDS011;49086;52.300;4.850;2022-07-30T00:42:36;11.30;;;4.38;;
62994;SDS011;49086;52.300;4.850;2022-07-30T00:45:06;10.80;;;4.03;;
62994;SDS011;49086;52.300;4.850;2022-07-30T00:47:34;7.25;;;3.95;;
62994;SDS011;49086;52.300;4.850;2022-07-30T00:50:03;8.82;;;4.00;;
62994;SDS011;49086;52.300;4.850;2022-07-30T00:52:39;9.02;;;4.20;;
62994;SDS011;49086;52.300;4.850;2022-07-30T00:55:06;6.95;;;3.90;;
62994;SDS011;49086;52.300;4.850;2022-07-30T00:57:35;8.73;;;4.28;;
62994;SDS011;49086;52.300;4.850;2022-07-30T01:00:02;7.38;;;4.00;;
62994;SDS011;49086;52.300;4.850;2022-07-30T01:02:33;7.57;;;4.00;;
62994;SDS011;49086;52.300;4.850;2022-07-30T01:05:00;10.77;;;4.90;;
62994;SDS011;49086;52.300;4.850;2022-07-30T01:07:26;9.88;;;4.20;;
62994;SDS011;49086;52.300;4.850;2022-07-30T01:09:53;8.25;;;4.25;;
62994;SDS011;49086;52.300;4.850;2022-07-30T01:12:24;7.75;;;4.20;;
62994;SDS011;49086;52.300;4.850;2022-07-30T01:14:50;9.07;;;4.38;;
62994;SDS011;49086;52.300;4.850;2022-07-30T01:17:17;8.77;;;4.20;;
62994;SDS011;49086;52.300;4.850;2022-07-30T01:19:43;6.70;;;4.05;;
62994;SDS011;49086;52.300;4.850;2022-07-30T01:22:32;11.90;;;4.93;;
62994;SDS011;49086;52.300;4.850;2022-07-30T01:25:08;12.55;;;4.97;;
62994;SDS011;49086;52.300;4.850;2022-07-30T01:28:02;9.00;;;4.88;;
62994;SDS011;49086;52.300;4.850;2022-07-30T01:30:42;7.20;;;4.75;;
62994;SDS011;49086;52.300;4.850;2022-07-30T01:33:11;9.73;;;4.97;;
62994;SDS011;49086;52.300;4.850;2022-07-30T01:35:46;8.23;;;4.78;;
62994;SDS011;49086;52.300;4.850;2022-07-30T01:38:13;14.65;;;5.40;;
62994;SDS011;49086;52.300;4.850;2022-07-30T01:40:43;10.23;;;4.80;;
62994;SDS011;49086;52.300;4.850;2022-07-30T01:43:15;9.20;;;5.25;;
62994;SDS011;49086;52.300;4.850;2022-07-30T01:45:48;10.55;;;5.30;;
62994;SDS011;49086;52.300;4.850;2022-07-30T01:48:19;10.45;;;5.20;;
62994;SDS011;49086;52.300;4.850;2022-07-30T01:51:01;7.40;;;4.80;;
62994;SDS011;49086;52.300;4.850;2022-07-30T01:53:29;10.77;;;4.97;;
62994;SDS011;49086;52.300;4.850;2022-07-30T01:55:57;10.63;;;5.00;;
62994;SDS011;49086;52.300;4.850;2022-07-30T01:58:26;8.50;;;4.47;;
62994;SDS011;49086;52.300;4.850;2022-07-30T02:00:56;10.25;;;4.70;;
62994;SDS011;49086;52.300;4.850;2022-07-30T02:03:25;7.03;;;4.68;;
62994;SDS011;49086;52.300;4.850;2022-07-30T02:06:08;10.80;;;5.03;;
62994;SDS011;49086;52.300;4.850;2022-07-30T02:09:00;9.93;;;5.22;;
62994;SDS011;49086;52.300;4.850;2022-07-30T02:11:29;6.57;;;4.78;;
62994;SDS011;49086;52.300;4.850;2022-07-30T02:14:26;9.13;;;4.45;;
62994;SDS011;49086;52.300;4.850;2022-07-30T02:17:15;7.43;;;4.72;;
62994;SDS011;49086;52.300;4.850;2022-07-30T02:19:45;9.85;;;4.78;;
62994;SDS011;49086;52.300;4.850;2022-07-30T02:22:17;8.18;;;4.70;;
62994;SDS011;49086;52.300;4.850;2022-07-30T02:24:44;10.00;;;4.57;;
62994;SDS011;49086;52.300;4.850;2022-07-30T02:27:23;8.85;;;4.68;;
62994;SDS011;49086;52.300;4.850;2022-07-30T02:29:53;7.38;;;5.30;;
62994;SDS011;49086;52.300;4.850;2022-07-30T02:32:22;8.52;;;4.55;;
62994;SDS011;49086;52.300;4.850;2022-07-30T02:34:52;7.75;;;4.88;;
62994;SDS011;49086;52.300;4.850;2022-07-30T02:37:24;6.85;;;5.15;;
62994;SDS011;49086;52.300;4.850;2022-07-30T02:39:54;8.65;;;4.50;;
62994;SDS011;49086;52.300;4.850;2022-07-30T02:42:21;7.95;;;4.63;;
62994;SDS011;49086;52.300;4.850;2022-07-30T02:44:51;8.65;;;4.88;;
62994;SDS011;49086;52.300;4.850;2022-07-30T02:47:24;8.70;;;4.60;;
62994;SDS011;49086;52.300;4.850;2022-07-30T02:49:57;7.05;;;4.55;;
62994;SDS011;49086;52.300;4.850;2022-07-30T02:52:23;8.20;;;4.28;;
62994;SDS011;49086;52.300;4.850;2022-07-30T02:55:01;9.18;;;4.47;;
62994;SDS011;49086;52.300;4.850;2022-07-30T02:57:28;7.68;;;4.40;;
62994;SDS011;49086;52.300;4.850;2022-07-30T02:59:57;8.70;;;4.43;;
62994;SDS011;49086;52.300;4.850;2022-07-30T03:02:26;8.45;;;4.70;;
62994;SDS011;49086;52.300;4.850;2022-07-30T03:04:53;10.00;;;4.47;;
62994;SDS011;49086;52.300;4.850;2022-07-30T03:07:23;13.13;;;5.20;;
62994;SDS011;49086;52.300;4.850;2022-07-30T03:09:50;7.50;;;4.15;;
62994;SDS011;49086;52.300;4.850;2022-07-30T03:12:19;9.38;;;4.40;;
62994;SDS011;49086;52.300;4.850;2022-07-30T03:14:47;5.90;;;4.28;;
62994;SDS011;49086;52.300;4.850;2022-07-30T03:17:13;7.70;;;4.82;;
62994;SDS011;49086;52.300;4.850;2022-07-30T03:19:40;10.07;;;4.60;;
62994;SDS011;49086;52.300;4.850;2022-07-30T03:22:09;8.15;;;4.47;;
62994;SDS011;49086;52.300;4.850;2022-07-30T03:24:36;6.63;;;4.60;;
62994;SDS011;49086;52.300;4.850;2022-07-30T03:27:06;7.88;;;4.70;;
62994;SDS011;49086;52.300;4.850;2022-07-30T03:29:33;7.97;;;4.88;;
62994;SDS011;49086;52.300;4.850;2022-07-30T03:32:03;8.48;;;4.80;;
62994;SDS011;49086;52.300;4.850;2022-07-30T03:34:32;9.45;;;4.63;;
62994;SDS011;49086;52.300;4.850;2022-07-30T03:37:07;9.73;;;5.13;;
62994;SDS011;49086;52.300;4.850;2022-07-30T03:39:41;7.30;;;4.88;;
62994;SDS011;49086;52.300;4.850;2022-07-30T03:42:08;7.70;;;5.32;;
62994;SDS011;49086;52.300;4.850;2022-07-30T03:44:37;9.68;;;4.80;;
62994;SDS011;49086;52.300;4.850;2022-07-30T03:47:04;9.52;;;4.88;;
62994;SDS011;49086;52.300;4.850;2022-07-30T03:49:32;5.85;;;4.65;;
62994;SDS011;49086;52.300;4.850;2022-07-30T03:52:04;8.48;;;4.55;;
62994;SDS011;49086;52.300;4.850;2022-07-30T03:54:34;6.55;;;4.43;;
62994;SDS011;49086;52.300;4.850;2022-07-30T03:57:04;8.25;;;4.43;;
62994;SDS011;49086;52.300;4.850;2022-07-30T03:59:32;6.38;;;4.40;;
62994;SDS011;49086;52.300;4.850;2022-07-30T04:01:59;6.05;;;4.28;;
62994;SDS011;49086;52.300;4.850;2022-07-30T04:04:29;7.70;;;4.47;;
62994;SDS011;49086;52.300;4.850;2022-07-30T04:07:01;10.18;;;4.70;;
62994;SDS011;49086;52.300;4.850;2022-07-30T04:09:27;9.63;;;4.72;;
62994;SDS011;49086;52.300;4.850;2022-07-30T04:11:55;7.18;;;4.35;;
62994;SDS011;49086;52.300;4.850;2022-07-30T04:14:20;13.55;;;4.85;;
62994;SDS011;49086;52.300;4.850;2022-07-30T04:16:48;8.40;;;5.20;;
62994;SDS011;49086;52.300;4.850;2022-07-30T04:19:28;7.20;;;4.38;;
62994;SDS011;49086;52.300;4.850;2022-07-30T04:22:02;8.50;;;4.35;;
62994;SDS011;49086;52.300;4.850;2022-07-30T04:24:31;9.38;;;4.22;;
62994;SDS011;49086;52.300;4.850;2022-07-30T04:26:59;9.50;;;4.53;;
62994;SDS011;49086;52.300;4.850;2022-07-30T04:29:28;11.43;;;4.65;;
62994;SDS011;49086;52.300;4.850;2022-07-30T04:31:56;8.27;;;4.00;;
62994;SDS011;49086;52.300;4.850;2022-07-30T04:34:23;8.85;;;4.15;;
62994;SDS011;49086;52.300;4.850;2022-07-30T04:36:56;7.47;;;4.18;;
62994;SDS011;49086;52.300;4.850;2022-07-30T04:39:27;10.30;;;3.88;;
62994;SDS011;49086;52.300;4.850;2022-07-30T04:42:02;8.15;;;4.25;;
62994;SDS011;49086;52.300;4.850;2022-07-30T04:44:28;9.65;;;4.65;;
62994;SDS011;49086;52.300;4.850;2022-07-30T04:46:54;6.43;;;3.72;;
62994;SDS011;49086;52.300;4.850;2022-07-30T04:49:21;7.07;;;4.00;;
62994;SDS011;49086;52.300;4.850;2022-07-30T04:51:48;8.43;;;3.80;;
62994;SDS011;49086;52.300;4.850;2022-07-30T04:54:16;9.55;;;4.30;;
62994;SDS011;49086;52.300;4.850;2022-07-30T04:56:45;11.25;;;3.78;;
62994;SDS011;49086;52.300;4.850;2022-07-30T04:59:17;6.20;;;3.63;;
62994;SDS011;49086;52.300;4.850;2022-07-30T05:01:47;11.88;;;4.30;;
62994;SDS011;49086;52.300;4.850;2022-07-30T05:04:14;8.48;;;3.63;;
62994;SDS011;49086;52.300;4.850;2022-07-30T05:06:41;5.57;;;3.63;;
62994;SDS011;49086;52.300;4.850;2022-07-30T05:09:08;8.23;;;3.70;;
62994;SDS011;49086;52.300;4.850;2022-07-30T05:11:52;11.10;;;4.75;;
62994;SDS011;49086;52.300;4.850;2022-07-30T05:14:19;8.00;;;3.85;;
62994;SDS011;49086;52.300;4.850;2022-07-30T05:16:50;7.72;;;3.58;;
62994;SDS011;49086;52.300;4.850;2022-07-30T05:19:17;6.47;;;3.58;;
62994;SDS011;49086;52.300;4.850;2022-07-30T05:21:43;7.50;;;4.28;;
62994;SDS011;49086;52.300;4.850;2022-07-30T05:24:10;9.18;;;3.72;;
62994;SDS011;49086;52.300;4.850;2022-07-30T05:26:38;6.70;;;3.70;;
62994;SDS011;49086;52.300;4.850;2022-07-30T05:29:07;7.35;;;4.03;;
62994;SDS011;49086;52.300;4.850;2022-07-30T05:31:41;6.90;;;3.60;;
62994;SDS011;49086;52.300;4.850;2022-07-30T05:34:08;9.10;;;4.32;;
62994;SDS011;49086;52.300;4.850;2022-07-30T05:36:36;9.38;;;4.18;;
62994;SDS011;49086;52.300;4.850;2022-07-30T05:39:03;8.05;;;4.10;;
62994;SDS011;49086;52.300;4.850;2022-07-30T05:41:29;7.72;;;3.72;;
62994;SDS011;49086;52.300;4.850;2022-07-30T05:43:56;8.95;;;3.70;;
62994;SDS011;49086;52.300;4.850;2022-07-30T05:46:21;9.25;;;3.90;;
62994;SDS011;49086;52.300;4.850;2022-07-30T05:48:47;8.82;;;4.53;;
62994;SDS011;49086;52.300;4.850;2022-07-30T05:51:14;6.55;;;3.50;;
62994;SDS011;49086;52.300;4.850;2022-07-30T05:53:55;7.70;;;3.63;;
62994;SDS011;49086;52.300;4.850;2022-07-30T05:56:26;7.45;;;3.90;;
62994;SDS011;49086;52.300;4.850;2022-07-30T05:58:53;8.02;;;4.07;;
62994;SDS011;49086;52.300;4.850;2022-07-30T06:01:23;8.18;;;4.05;;
62994;SDS011;49086;52.300;4.850;2022-07-30T06:03:51;9.65;;;3.55;;
62994;SDS011;49086;52.300;4.850;2022-07-30T06:06:18;8.98;;;3.70;;
62994;SDS011;49086;52.300;4.850;2022-07-30T06:08:46;8.07;;;3.67;;
62994;SDS011;49086;52.300;4.850;2022-07-30T06:11:14;6.65;;;3.47;;
62994;SDS011;49086;52.300;4.850;2022-07-30T06:13:41;9.18;;;3.45;;
62994;SDS011;49086;52.300;4.850;2022-07-30T06:16:09;7.78;;;3.70;;
62994;SDS011;49086;52.300;4.850;2022-07-30T06:18:34;8.15;;;3.70;;
62994;SDS011;49086;52.300;4.850;2022-07-30T06:21:01;7.15;;;3.50;;
62994;SDS011;49086;52.300;4.850;2022-07-30T06:23:27;7.78;;;3.40;;
62994;SDS011;49086;52.300;4.850;2022-07-30T06:25:52;9.50;;;3.65;;
62994;SDS011;49086;52.300;4.850;2022-07-30T06:28:17;6.82;;;3.00;;
62994;SDS011;49086;52.300;4.850;2022-07-30T06:30:49;7.13;;;2.60;;
62994;SDS011;49086;52.300;4.850;2022-07-30T06:33:18;6.03;;;2.97;;
62994;SDS011;49086;52.300;4.850;2022-07-30T06:35:44;6.82;;;2.38;;
62994;SDS011;49086;52.300;4.850;2022-07-30T06:38:17;5.07;;;2.67;;
62994;SDS011;49086;52.300;4.850;2022-07-30T06:40:44;6.15;;;2.60;;
62994;SDS011;49086;52.300;4.850;2022-07-30T06:43:10;6.13;;;2.30;;
62994;SDS011;49086;52.300;4.850;2022-07-30T06:45:37;6.80;;;2.45;;
62994;SDS011;49086;52.300;4.850;2022-07-30T06:48:07;7.38;;;2.22;;
62994;SDS011;49086;52.300;4.850;2022-07-30T06:50:35;8.68;;;2.50;;
62994;SDS011;49086;52.300;4.850;2022-07-30T06:53:04;4.95;;;2.30;;
62994;SDS011;49086;52.300;4.850;2022-07-30T06:55:33;5.80;;;2.25;;
62994;SDS011;49086;52.300;4.850;2022-07-30T06:58:04;7.68;;;2.08;;
62994;SDS011;49086;52.300;4.850;2022-07-30T07:00:30;4.13;;;1.88;;
62994;SDS011;49086;52.300;4.850;2022-07-30T07:03:00;4.22;;;1.77;;
62994;SDS011;49086;52.300;4.850;2022-07-30T07:05:28;4.25;;;1.75;;
62994;SDS011;49086;52.300;4.850;2022-07-30T07:07:55;3.42;;;1.73;;
62994;SDS011;49086;52.300;4.850;2022-07-30T07:10:22;6.38;;;2.20;;
62994;SDS011;49086;52.300;4.850;2022-07-30T07:12:48;6.10;;;2.05;;
62994;SDS011;49086;52.300;4.850;2022-07-30T07:15:15;3.47;;;2.00;;
62994;SDS011;49086;52.300;4.850;2022-07-30T07:17:41;7.93;;;2.05;;
62994;SDS011;49086;52.300;4.850;2022-07-30T07:20:06;3.72;;;2.08;;
62994;SDS011;49086;52.300;4.850;2022-07-30T07:22:32;5.35;;;2.03;;
62994;SDS011;49086;52.300;4.850;2022-07-30T07:24:59;3.25;;;1.90;;
62994;SDS011;49086;52.300;4.850;2022-07-30T07:27:25;5.18;;;2.00;;
62994;SDS011;49086;52.300;4.850;2022-07-30T07:29:52;5.45;;;2.00;;
62994;SDS011;49086;52.300;4.850;2022-07-30T07:32:20;4.30;;;2.00;;
62994;SDS011;49086;52.300;4.850;2022-07-30T07:34:47;4.03;;;1.77;;
62994;SDS011;49086;52.300;4.850;2022-07-30T07:37:13;4.07;;;1.90;;
62994;SDS011;49086;52.300;4.850;2022-07-30T07:39:40;4.88;;;1.98;;
62994;SDS011;49086;52.300;4.850;2022-07-30T07:42:07;5.80;;;1.90;;
62994;SDS011;49086;52.300;4.850;2022-07-30T07:44:34;6.70;;;2.28;;
62994;SDS011;49086;52.300;4.850;2022-07-30T07:46:59;7.25;;;2.10;;
62994;SDS011;49086;52.300;4.850;2022-07-30T07:49:25;3.53;;;1.75;;
62994;SDS011;49086;52.300;4.850;2022-07-30T07:51:51;6.85;;;2.03;;
62994;SDS011;49086;52.300;4.850;2022-07-30T07:54:17;4.95;;;2.00;;
62994;SDS011;49086;52.300;4.850;2022-07-30T07:56:42;5.20;;;2.00;;
62994;SDS011;49086;52.300;4.850;2022-07-30T07:59:10;4.28;;;2.00;;
62994;SDS011;49086;52.300;4.850;2022-07-30T08:01:35;3.47;;;1.90;;
62994;SDS011;49086;52.300;4.850;2022-07-30T08:04:01;7.10;;;1.90;;
62994;SDS011;49086;52.300;4.850;2022-07-30T08:06:34;7.35;;;1.77;;
62994;SDS011;49086;52.300;4.850;2022-07-30T08:09:01;4.90;;;2.03;;
62994;SDS011;49086;52.300;4.850;2022-07-30T08:11:28;8.70;;;1.88;;
62994;SDS011;49086;52.300;4.850;2022-07-30T08:13:58;2.83;;;1.45;;
62994;SDS011;49086;52.300;4.850;2022-07-30T08:16:25;6.13;;;2.05;;
62994;SDS011;49086;52.300;4.850;2022-07-30T08:18:51;5.07;;;1.80;;
62994;SDS011;49086;52.300;4.850;2022-07-30T08:21:22;4.55;;;1.80;;
62994;SDS011;49086;52.300;4.850;2022-07-30T08:23:49;4.57;;;1.58;;
62994;SDS011;49086;52.300;4.850;2022-07-30T08:26:15;3.15;;;1.60;;
62994;SDS011;49086;52.300;4.850;2022-07-30T08:28:40;3.60;;;1.77;;
62994;SDS011;49086;52.300;4.850;2022-07-30T08:31:13;4.20;;;1.65;;
62994;SDS011;49086;52.300;4.850;2022-07-30T08:33:39;5.80;;;1.60;;
62994;SDS011;49086;52.300;4.850;2022-07-30T08:36:09;3.90;;;1.63;;
62994;SDS011;49086;52.300;4.850;2022-07-30T08:38:39;3.13;;;1.20;;
62994;SDS011;49086;52.300;4.850;2022-07-30T08:41:11;4.78;;;1.75;;
62994;SDS011;49086;52.300;4.850;2022-07-30T08:43:40;3.75;;;1.55;;
62994;SDS011;49086;52.300;4.850;2022-07-30T08:46:08;3.97;;;1.58;;
62994;SDS011;49086;52.300;4.850;2022-07-30T08:48:36;6.05;;;1.70;;
62994;SDS011;49086;52.300;4.850;2022-07-30T08:51:02;2.50;;;1.50;;
62994;SDS011;49086;52.300;4.850;2022-07-30T08:53:30;3.30;;;1.42;;
62994;SDS011;49086;52.300;4.850;2022-07-30T08:55:58;3.28;;;1.45;;
62994;SDS011;49086;52.300;4.850;2022-07-30T08:58:27;6.30;;;2.30;;
62994;SDS011;49086;52.300;4.850;2022-07-30T09:01:06;2.72;;;1.30;;
62994;SDS011;49086;52.300;4.850;2022-07-30T09:03:35;2.90;;;1.60;;
62994;SDS011;49086;52.300;4.850;2022-07-30T09:06:03;3.92;;;1.52;;
62994;SDS011;49086;52.300;4.850;2022-07-30T09:08:31;3.80;;;1.05;;
62994;SDS011;49086;52.300;4.850;2022-07-30T09:11:01;2.75;;;1.13;;
62994;SDS011;49086;52.300;4.850;2022-07-30T09:13:37;2.85;;;1.25;;
62994;SDS011;49086;52.300;4.850;2022-07-30T09:16:06;2.95;;;1.27;;
62994;SDS011;49086;52.300;4.850;2022-07-30T09:18:43;4.22;;;1.20;;
62994;SDS011;49086;52.300;4.850;2022-07-30T09:21:13;2.78;;;1.20;;
62994;SDS011;49086;52.300;4.850;2022-07-30T09:24:09;8.43;;;1.50;;
62994;SDS011;49086;52.300;4.850;2022-07-30T09:29:34;3.70;;;1.90;;
62994;SDS011;49086;52.300;4.850;2022-07-30T09:32:01;3.13;;;1.20;;
62994;SDS011;49086;52.300;4.850;2022-07-30T09:34:32;3.33;;;1.40;;
62994;SDS011;49086;52.300;4.850;2022-07-30T09:37:02;2.78;;;1.30;;
62994;SDS011;49086;52.300;4.850;2022-07-30T09:39:41;3.33;;;1.30;;
62994;SDS011;49086;52.300;4.850;2022-07-30T09:42:20;4.82;;;1.20;;
62994;SDS011;49086;52.300;4.850;2022-07-30T09:44:50;2.83;;;1.13;;
62994;SDS011;49086;52.300;4.850;2022-07-30T09:47:34;5.20;;;1.30;;
62994;SDS011;49086;52.300;4.850;2022-07-30T09:50:08;2.45;;;1.17;;
62994;SDS011;49086;52.300;4.850;2022-07-30T09:52:40;2.55;;;1.20;;
62994;SDS011;49086;52.300;4.850;2022-07-30T09:55:11;2.70;;;1.30;;
62994;SDS011;49086;52.300;4.850;2022-07-30T09:57:52;3.70;;;1.10;;
62994;SDS011;49086;52.300;4.850;2022-07-30T10:00:23;4.18;;;1.33;;
62994;SDS011;49086;52.300;4.850;2022-07-30T10:02:51;4.55;;;1.15;;
62994;SDS011;49086;52.300;4.850;2022-07-30T10:05:17;4.05;;;1.30;;
62994;SDS011;49086;52.300;4.850;2022-07-30T10:07:55;3.90;;;1.27;;
62994;SDS011;49086;52.300;4.850;2022-07-30T10:10:42;1.98;;;1.20;;
62994;SDS011;49086;52.300;4.850;2022-07-30T10:13:09;3.15;;;1.60;;
62994;SDS011;49086;52.300;4.850;2022-07-30T10:15:38;2.85;;;1.30;;
62994;SDS011;49086;52.300;4.850;2022-07-30T10:18:07;3.90;;;1.63;;
62994;SDS011;49086;52.300;4.850;2022-07-30T10:20:35;2.83;;;1.50;;
62994;SDS011;49086;52.300;4.850;2022-07-30T10:23:05;5.70;;;1.52;;
62994;SDS011;49086;52.300;4.850;2022-07-30T10:25:36;4.00;;;1.58;;
62994;SDS011;49086;52.300;4.850;2022-07-30T10:28:02;3.63;;;1.33;;
62994;SDS011;49086;52.300;4.850;2022-07-30T10:30:29;3.13;;;1.30;;
62994;SDS011;49086;52.300;4.850;2022-07-30T10:32:58;2.58;;;1.17;;
62994;SDS011;49086;52.300;4.850;2022-07-30T10:35:24;2.35;;;1.20;;
62994;SDS011;49086;52.300;4.850;2022-07-30T10:37:50;4.15;;;1.38;;
62994;SDS011;49086;52.300;4.850;2022-07-30T10:40:39;3.03;;;1.08;;
62994;SDS011;49086;52.300;4.850;2022-07-30T10:46:15;3.58;;;1.27;;
62994;SDS011;49086;52.300;4.850;2022-07-30T10:49:11;2.55;;;1.35;;
62994;SDS011;49086;52.300;4.850;2022-07-30T10:51:44;3.00;;;1.30;;
62994;SDS011;49086;52.300;4.850;2022-07-30T10:54:36;2.55;;;1.10;;
62994;SDS011;49086;52.300;4.850;2022-07-30T11:02:27;4.82;;;1.30;;
62994;SDS011;49086;52.300;4.850;2022-07-30T11:07:46;2.80;;;1.40;;
62994;SDS011;49086;52.300;4.850;2022-07-30T11:10:47;6.30;;;1.20;;
62994;SDS011;49086;52.300;4.850;2022-07-30T11:13:13;4.13;;;1.20;;
62994;SDS011;49086;52.300;4.850;2022-07-30T11:18:24;2.30;;;1.10;;
62994;SDS011;49086;52.300;4.850;2022-07-30T11:26:54;2.65;;;1.25;;
62994;SDS011;49086;52.300;4.850;2022-07-30T11:29:07;3.15;;;1.30;;
62994;SDS011;49086;52.300;4.850;2022-07-30T11:31:57;3.88;;;1.30;;
62994;SDS011;49086;52.300;4.850;2022-07-30T11:42:32;5.80;;;1.40;;
62994;SDS011;49086;52.300;4.850;2022-07-30T11:47:49;4.53;;;1.65;;
62994;SDS011;49086;52.300;4.850;2022-07-30T11:50:21;3.03;;;1.50;;
62994;SDS011;49086;52.300;4.850;2022-07-30T11:52:56;2.25;;;1.27;;
62994;SDS011;49086;52.300;4.850;2022-07-30T11:57:53;3.58;;;1.60;;
62994;SDS011;49086;52.300;4.850;2022-07-30T12:00:19;2.97;;;1.27;;
62994;SDS011;49086;52.300;4.850;2022-07-30T12:02:46;3.72;;;1.30;;
62994;SDS011;49086;52.300;4.850;2022-07-30T12:05:12;3.92;;;1.40;;
62994;SDS011;49086;52.300;4.850;2022-07-30T12:07:39;3.92;;;1.25;;
62994;SDS011;49086;52.300;4.850;2022-07-30T12:10:11;3.05;;;1.10;;
62994;SDS011;49086;52.300;4.850;2022-07-30T12:12:41;3.42;;;1.50;;
62994;SDS011;49086;52.300;4.850;2022-07-30T12:15:08;3.28;;;1.27;;
62994;SDS011;49086;52.300;4.850;2022-07-30T12:17:40;3.95;;;1.30;;
62994;SDS011;49086;52.300;4.850;2022-07-30T12:20:15;4.25;;;1.60;;
62994;SDS011;49086;52.300;4.850;2022-07-30T12:22:42;4.78;;;1.30;;
62994;SDS011;49086;52.300;4.850;2022-07-30T12:25:09;2.95;;;1.30;;
62994;SDS011;49086;52.300;4.850;2022-07-30T12:27:36;3.05;;;1.00;;
62994;SDS011;49086;52.300;4.850;2022-07-30T12:30:03;3.22;;;1.40;;
62994;SDS011;49086;52.300;4.850;2022-07-30T12:32:30;3.83;;;1.20;;
62994;SDS011;49086;52.300;4.850;2022-07-30T12:34:57;5.80;;;1.42;;
62994;SDS011;49086;52.300;4.850;2022-07-30T12:37:24;2.72;;;1.25;;
62994;SDS011;49086;52.300;4.850;2022-07-30T12:42:51;3.45;;;1.20;;
62994;SDS011;49086;52.300;4.850;2022-07-30T12:47:53;6.55;;;1.63;;
62994;SDS011;49086;52.300;4.850;2022-07-30T12:50:23;3.65;;;1.17;;
62994;SDS011;49086;52.300;4.850;2022-07-30T12:52:52;3.80;;;1.25;;
62994;SDS011;49086;52.300;4.850;2022-07-30T12:55:28;4.65;;;1.33;;
62994;SDS011;49086;52.300;4.850;2022-07-30T12:58:05;4.47;;;1.20;;
62994;SDS011;49086;52.300;4.850;2022-07-30T13:00:32;3.22;;;1.40;;
62994;SDS011;49086;52.300;4.850;2022-07-30T13:03:26;2.85;;;1.10;;
62994;SDS011;49086;52.300;4.850;2022-07-30T13:05:54;4.80;;;1.33;;
62994;SDS011;49086;52.300;4.850;2022-07-30T13:11:17;3.22;;;1.20;;
62994;SDS011;49086;52.300;4.850;2022-07-30T13:13:43;5.25;;;1.40;;
62994;SDS011;49086;52.300;4.850;2022-07-30T13:16:10;2.58;;;1.38;;
62994;SDS011;49086;52.300;4.850;2022-07-30T13:18:39;4.55;;;1.40;;
62994;SDS011;49086;52.300;4.850;2022-07-30T13:21:10;4.47;;;2.00;;
62994;SDS011;49086;52.300;4.850;2022-07-30T13:23:40;2.60;;;1.10;;
62994;SDS011;49086;52.300;4.850;2022-07-30T13:26:08;3.45;;;1.23;;
62994;SDS011;49086;52.300;4.850;2022-07-30T13:28:38;6.07;;;1.40;;
62994;SDS011;49086;52.300;4.850;2022-07-30T13:31:06;3.15;;;1.40;;
62994;SDS011;49086;52.300;4.850;2022-07-30T13:33:33;4.95;;;1.20;;
62994;SDS011;49086;52.300;4.850;2022-07-30T13:36:02;3.78;;;1.30;;
62994;SDS011;49086;52.300;4.850;2022-07-30T13:39:10;4.82;;;1.77;;
62994;SDS011;49086;52.300;4.850;2022-07-30T13:41:36;5.15;;;1.60;;
62994;SDS011;49086;52.300;4.850;2022-07-30T13:44:02;2.90;;;1.48;;
62994;SDS011;49086;52.300;4.850;2022-07-30T13:46:29;3.80;;;1.40;;
62994;SDS011;49086;52.300;4.850;2022-07-30T13:48:57;4.40;;;1.42;;
62994;SDS011;49086;52.300;4.850;2022-07-30T13:51:23;5.55;;;1.50;;
62994;SDS011;49086;52.300;4.850;2022-07-30T13:53:51;3.83;;;1.70;;
62994;SDS011;49086;52.300;4.850;2022-07-30T13:56:22;3.72;;;1.40;;
62994;SDS011;49086;52.300;4.850;2022-07-30T13:58:47;3.58;;;1.35;;
62994;SDS011;49086;52.300;4.850;2022-07-30T14:01:15;3.60;;;1.70;;
62994;SDS011;49086;52.300;4.850;2022-07-30T14:03:40;3.33;;;1.40;;
62994;SDS011;49086;52.300;4.850;2022-07-30T14:06:05;4.03;;;1.27;;
62994;SDS011;49086;52.300;4.850;2022-07-30T14:08:34;9.52;;;1.50;;
62994;SDS011;49086;52.300;4.850;2022-07-30T14:10:59;6.68;;;1.48;;
62994;SDS011;49086;52.300;4.850;2022-07-30T14:13:26;6.32;;;1.80;;
62994;SDS011;49086;52.300;4.850;2022-07-30T14:15:51;4.63;;;1.35;;
62994;SDS011;49086;52.300;4.850;2022-07-30T14:18:18;5.70;;;1.35;;
62994;SDS011;49086;52.300;4.850;2022-07-30T14:20:44;3.83;;;1.40;;
62994;SDS011;49086;52.300;4.850;2022-07-30T14:23:11;5.88;;;1.40;;
62994;SDS011;49086;52.300;4.850;2022-07-30T14:25:37;5.63;;;1.50;;
62994;SDS011;49086;52.300;4.850;2022-07-30T14:28:06;4.80;;;1.63;;
62994;SDS011;49086;52.300;4.850;2022-07-30T14:30:37;3.78;;;1.48;;
62994;SDS011;49086;52.300;4.850;2022-07-30T14:33:03;4.18;;;1.52;;
62994;SDS011;49086;52.300;4.850;2022-07-30T14:35:28;4.07;;;1.48;;
62994;SDS011;49086;52.300;4.850;2022-07-30T14:37:53;3.83;;;1.35;;
62994;SDS011;49086;52.300;4.850;2022-07-30T14:40:20;4.75;;;1.70;;
62994;SDS011;49086;52.300;4.850;2022-07-30T14:42:47;4.65;;;1.70;;
62994;SDS011;49086;52.300;4.850;2022-07-30T14:45:13;4.70;;;1.50;;
62994;SDS011;49086;52.300;4.850;2022-07-30T14:47:39;5.22;;;1.52;;
62994;SDS011;49086;52.300;4.850;2022-07-30T14:50:08;4.10;;;1.50;;
62994;SDS011;49086;52.300;4.850;2022-07-30T14:52:37;3.22;;;1.23;;
62994;SDS011;49086;52.300;4.850;2022-07-30T14:55:08;2.17;;;1.20;;
62994;SDS011;49086;52.300;4.850;2022-07-30T14:57:34;7.00;;;1.38;;
62994;SDS011;49086;52.300;4.850;2022-07-30T15:00:04;4.38;;;1.33;;
62994;SDS011;49086;52.300;4.850;2022-07-30T15:02:32;4.35;;;1.63;;
62994;SDS011;49086;52.300;4.850;2022-07-30T15:05:03;5.55;;;1.40;;
62994;SDS011;49086;52.300;4.850;2022-07-30T15:07:49;3.72;;;1.60;;
62994;SDS011;49086;52.300;4.850;2022-07-30T15:10:19;3.60;;;1.50;;
62994;SDS011;49086;52.300;4.850;2022-07-30T15:12:45;4.55;;;1.27;;
62994;SDS011;49086;52.300;4.850;2022-07-30T15:15:14;3.38;;;1.50;;
62994;SDS011;49086;52.300;4.850;2022-07-30T15:17:43;4.18;;;1.50;;
62994;SDS011;49086;52.300;4.850;2022-07-30T15:20:09;2.47;;;1.20;;
62994;SDS011;49086;52.300;4.850;2022-07-30T15:22:35;5.65;;;1.65;;
62994;SDS011;49086;52.300;4.850;2022-07-30T15:25:01;4.00;;;1.40;;
62994;SDS011;49086;52.300;4.850;2022-07-30T15:27:28;5.53;;;1.50;;
62994;SDS011;49086;52.300;4.850;2022-07-30T15:29:53;5.07;;;1.65;;
62994;SDS011;49086;52.300;4.850;2022-07-30T15:32:29;7.30;;;1.50;;
62994;SDS011;49086;52.300;4.850;2022-07-30T15:34:55;5.57;;;1.70;;
62994;SDS011;49086;52.300;4.850;2022-07-30T15:37:24;3.40;;;1.58;;
62994;SDS011;49086;52.300;4.850;2022-07-30T15:39:51;3.95;;;1.30;;
62994;SDS011;49086;52.300;4.850;2022-07-30T15:42:16;2.80;;;1.40;;
62994;SDS011;49086;52.300;4.850;2022-07-30T15:44:43;6.82;;;2.40;;